createdAt,value
2018-12-03T00:01:12.192Z,10.80
2018-12-03T00:03:47.796Z,10.80
2018-12-03T00:06:22.117Z,10.80
2018-12-03T00:08:57.196Z,10.80
2018-12-03T00:11:31.513Z,10.70
2018-12-03T00:14:06.370Z,10.70
2018-12-03T00:16:41.236Z,10.70
2018-12-03T00:19:16.587Z,10.70
2018-12-03T00:21:51.157Z,10.70
2018-12-03T00:24:25.548Z,10.70
2018-12-03T00:42:22.224Z,10.70
2018-12-03T00:44:56.886Z,10.70
2018-12-03T00:47:31.515Z,10.80
2018-12-03T00:50:06.249Z,10.80
2018-12-03T00:52:41.245Z,10.80
2018-12-03T00:55:15.878Z,10.80
2018-12-03T00:57:50.654Z,10.80
2018-12-03T01:00:25.229Z,10.80
2018-12-03T01:03:03.399Z,10.80
2018-12-03T01:05:38.263Z,10.80
2018-12-03T01:08:12.491Z,10.80
2018-12-03T01:10:46.740Z,10.80
2018-12-03T01:13:21.864Z,10.80
2018-12-03T01:15:57.041Z,10.80
2018-12-03T01:18:31.212Z,10.90
2018-12-03T01:21:06.284Z,10.90
2018-12-03T01:23:42.037Z,10.90
2018-12-03T01:26:16.901Z,10.90
2018-12-03T01:28:52.591Z,10.90
2018-12-03T01:31:27.082Z,10.90
2018-12-03T01:34:02.429Z,10.90
2018-12-03T01:36:37.529Z,10.90
2018-12-03T01:39:12.281Z,10.90
2018-12-03T01:41:47.388Z,10.90
2018-12-03T01:44:22.014Z,10.90
2018-12-03T01:46:56.563Z,10.90
2018-12-03T01:49:31.069Z,10.90
2018-12-03T01:52:06.006Z,10.90
2018-12-03T01:54:40.259Z,10.90
2018-12-03T01:57:15.103Z,10.90
2018-12-03T01:59:49.508Z,10.90
2018-12-03T02:02:24.420Z,10.90
2018-12-03T02:04:59.452Z,10.90
2018-12-03T02:07:34.069Z,10.90
2018-12-03T02:10:15.732Z,10.90
2018-12-03T02:12:50.486Z,10.90
2018-12-03T02:15:24.898Z,10.90
2018-12-03T02:18:00.560Z,10.90
2018-12-03T02:20:35.423Z,10.90
2018-12-03T02:23:10.158Z,10.90
2018-12-03T02:25:44.732Z,10.90
2018-12-03T02:28:18.871Z,10.90
2018-12-03T02:30:53.502Z,10.90
2018-12-03T02:33:28.232Z,10.90
2018-12-03T02:36:02.950Z,10.90
2018-12-03T02:38:37.523Z,10.90
2018-12-03T02:41:11.915Z,10.90
2018-12-03T02:43:46.827Z,10.90
2018-12-03T02:46:21.577Z,10.90
2018-12-03T02:48:56.552Z,10.90
2018-12-03T02:51:31.387Z,10.90
2018-12-03T02:54:06.576Z,10.90
2018-12-03T02:56:40.932Z,10.80
2018-12-03T02:59:15.467Z,10.80
2018-12-03T03:01:50.083Z,10.80
2018-12-03T03:04:24.971Z,10.80
2018-12-03T03:06:59.278Z,10.80
2018-12-03T03:09:34.154Z,10.70
2018-12-03T03:12:08.479Z,10.70
2018-12-03T03:14:43.032Z,10.60
2018-12-03T03:17:17.423Z,10.60
2018-12-03T03:19:51.933Z,10.60
2018-12-03T03:22:26.673Z,10.50
2018-12-03T03:25:01.300Z,10.50
2018-12-03T03:27:36.051Z,10.50
2018-12-03T03:30:13.217Z,10.50
2018-12-03T03:32:47.973Z,10.50
2018-12-03T03:35:22.424Z,10.50
2018-12-03T03:37:57.082Z,10.40
2018-12-03T03:40:31.613Z,10.40
2018-12-03T03:43:06.772Z,10.50
2018-12-03T03:45:41.403Z,10.50
2018-12-03T03:48:16.296Z,10.50
2018-12-03T03:50:50.934Z,10.50
2018-12-03T03:53:25.869Z,10.50
2018-12-03T03:56:00.085Z,10.50
2018-12-03T03:58:34.738Z,10.50
2018-12-03T04:01:09.366Z,10.50
2018-12-03T04:03:44.113Z,10.50
2018-12-03T04:06:18.806Z,10.50
2018-12-03T04:08:53.348Z,10.50
2018-12-03T04:11:28.039Z,10.60
2018-12-03T04:14:03.007Z,10.60
2018-12-03T04:16:37.316Z,10.60
2018-12-03T04:19:12.055Z,10.60
2018-12-03T04:21:46.547Z,10.60
2018-12-03T04:24:21.418Z,10.60
2018-12-03T04:26:56.224Z,10.60
2018-12-03T04:29:30.961Z,10.70
2018-12-03T04:32:05.711Z,10.70
2018-12-03T04:34:40.430Z,10.70
2018-12-03T04:37:14.968Z,10.70
2018-12-03T04:39:49.730Z,10.70
2018-12-03T04:42:24.364Z,10.80
2018-12-03T04:44:59.009Z,10.80
2018-12-03T04:47:33.619Z,10.80
2018-12-03T04:50:14.924Z,10.80
2018-12-03T04:52:49.937Z,10.90
2018-12-03T04:55:24.583Z,10.90
2018-12-03T04:57:59.450Z,10.90
2018-12-03T05:00:33.833Z,11.00
2018-12-03T05:03:08.907Z,11.00
2018-12-03T05:05:43.315Z,11.00
2018-12-03T05:08:18.223Z,11.00
2018-12-03T05:10:52.750Z,11.00
2018-12-03T05:13:27.491Z,11.00
2018-12-03T05:16:02.343Z,11.00
2018-12-03T05:18:36.888Z,11.00
2018-12-03T05:21:11.552Z,11.00
2018-12-03T05:23:46.506Z,11.00
2018-12-03T05:26:20.756Z,11.00
2018-12-03T05:28:55.423Z,11.00
2018-12-03T05:31:29.704Z,11.00
2018-12-03T05:34:05.255Z,11.10
2018-12-03T05:36:39.540Z,11.00
2018-12-03T05:39:14.027Z,11.10
2018-12-03T05:41:48.564Z,11.10
2018-12-03T05:44:23.287Z,11.10
2018-12-03T05:46:57.863Z,11.10
2018-12-03T05:49:32.667Z,11.10
2018-12-03T05:52:07.055Z,11.10
2018-12-03T05:54:41.705Z,11.10
2018-12-03T05:57:16.523Z,11.10
2018-12-03T05:59:51.137Z,11.10
2018-12-03T06:02:25.924Z,11.10
2018-12-03T06:05:00.856Z,11.10
2018-12-03T06:07:36.786Z,11.10
2018-12-03T06:10:15.516Z,11.10
2018-12-03T06:12:50.843Z,11.10
2018-12-03T06:15:25.961Z,11.10
2018-12-03T06:18:00.787Z,11.10
2018-12-03T06:20:35.467Z,11.10
2018-12-03T06:23:10.254Z,11.20
2018-12-03T06:25:44.831Z,11.30
2018-12-03T06:28:19.619Z,11.40
2018-12-03T06:30:53.953Z,11.40
2018-12-03T06:33:28.714Z,11.50
2018-12-03T06:36:02.986Z,11.50
2018-12-03T06:38:37.491Z,11.50
2018-12-03T06:41:11.955Z,11.50
2018-12-03T06:43:46.335Z,11.50
2018-12-03T06:46:21.115Z,11.40
2018-12-03T06:48:56.503Z,11.40
2018-12-03T06:51:31.118Z,11.40
2018-12-03T06:54:05.671Z,11.40
2018-12-03T06:56:40.272Z,11.40
2018-12-03T06:59:14.986Z,11.40
2018-12-03T07:01:49.610Z,11.40
2018-12-03T07:04:24.348Z,11.40
2018-12-03T07:06:59.149Z,11.40
2018-12-03T07:09:34.827Z,11.40
2018-12-03T07:12:09.087Z,11.40
2018-12-03T07:14:43.724Z,11.50
2018-12-03T07:17:18.208Z,11.50
2018-12-03T07:19:53.175Z,11.50
2018-12-03T07:22:28.015Z,11.60
2018-12-03T07:25:02.936Z,11.50
2018-12-03T07:27:39.431Z,11.60
2018-12-03T07:30:19.463Z,11.60
2018-12-03T07:32:53.946Z,11.70
2018-12-03T07:35:28.899Z,11.70
2018-12-03T07:38:04.159Z,11.70
2018-12-03T07:40:38.880Z,11.70
2018-12-03T07:43:13.818Z,11.80
2018-12-03T07:45:47.986Z,11.80
2018-12-03T07:48:22.235Z,11.80
2018-12-03T07:50:57.301Z,11.80
2018-12-03T07:53:32.024Z,11.90
2018-12-03T07:56:06.929Z,11.90
2018-12-03T07:58:41.275Z,11.90
2018-12-03T08:01:15.863Z,12.00
2018-12-03T08:03:50.782Z,12.00
2018-12-03T08:06:25.320Z,12.00
2018-12-03T08:08:59.776Z,12.00
2018-12-03T08:11:34.747Z,12.10
2018-12-03T08:14:09.299Z,12.10
2018-12-03T08:16:44.054Z,12.20
2018-12-03T08:19:18.835Z,12.20
2018-12-03T08:21:53.683Z,12.30
2018-12-03T08:24:28.723Z,12.30
2018-12-03T08:27:03.130Z,12.30
2018-12-03T08:29:37.612Z,12.40
2018-12-03T08:32:12.555Z,12.40
2018-12-03T08:34:47.511Z,12.40
2018-12-03T08:37:22.401Z,12.40
2018-12-03T08:39:57.183Z,12.50
2018-12-03T08:42:32.073Z,12.50
2018-12-03T08:45:07.296Z,12.60
2018-12-03T08:47:42.807Z,12.60
2018-12-03T08:50:23.304Z,12.70
2018-12-03T08:52:58.581Z,12.70
2018-12-03T08:55:32.799Z,12.70
2018-12-03T08:58:13.983Z,12.80
2018-12-03T09:00:48.329Z,12.80
2018-12-03T09:03:28.711Z,13.00
2018-12-03T09:06:11.255Z,13.10
2018-12-03T09:08:49.108Z,13.10
2018-12-03T09:11:24.457Z,13.10
2018-12-03T09:13:59.336Z,13.10
2018-12-03T09:16:33.983Z,13.10
2018-12-03T09:19:08.518Z,13.10
2018-12-03T09:21:43.007Z,13.20
2018-12-03T09:24:17.606Z,13.20
2018-12-03T09:26:52.181Z,13.30
2018-12-03T09:29:26.735Z,13.30
2018-12-03T09:32:01.528Z,13.30
2018-12-03T09:34:36.154Z,13.30
2018-12-03T09:37:10.560Z,13.40
2018-12-03T09:39:48.747Z,13.40
2018-12-03T09:42:31.020Z,13.40
2018-12-03T09:45:11.455Z,13.50
2018-12-03T09:47:47.099Z,13.50
2018-12-03T09:50:24.829Z,13.50
2018-12-03T09:52:59.670Z,13.60
2018-12-03T09:55:34.358Z,13.70
2018-12-03T09:58:13.996Z,13.80
2018-12-03T10:00:48.167Z,14.00
2018-12-03T10:03:26.282Z,14.20
2018-12-03T10:06:09.008Z,14.50
2018-12-03T10:08:43.376Z,14.70
2018-12-03T10:11:18.152Z,15.00
2018-12-03T10:13:52.639Z,15.20
2018-12-03T10:16:27.483Z,15.30
2018-12-03T10:19:02.568Z,15.50
2018-12-03T10:21:38.624Z,15.60
2018-12-03T10:24:13.692Z,15.60
2018-12-03T10:26:47.971Z,15.70
2018-12-03T10:29:22.708Z,15.70
2018-12-03T10:31:57.526Z,15.70
2018-12-03T10:34:31.964Z,15.70
2018-12-03T10:37:06.835Z,15.70
2018-12-03T10:39:41.284Z,15.60
2018-12-03T10:42:17.961Z,15.50
2018-12-03T10:44:52.871Z,15.40
2018-12-03T10:47:27.929Z,15.40
2018-12-03T10:50:06.859Z,15.30
2018-12-03T10:52:41.891Z,15.30
2018-12-03T10:55:17.211Z,15.20
2018-12-03T10:57:52.228Z,15.10
2018-12-03T11:00:32.479Z,15.10
2018-12-03T11:03:12.879Z,15.00
2018-12-03T11:05:53.264Z,15.00
2018-12-03T11:08:29.175Z,15.00
2018-12-03T11:11:03.012Z,14.90
2018-12-03T11:13:37.732Z,14.90
2018-12-03T11:16:25.180Z,14.90
2018-12-03T11:19:00.163Z,14.90
2018-12-03T11:21:35.334Z,14.80
2018-12-03T11:24:14.368Z,14.80
2018-12-03T11:26:51.731Z,14.80
2018-12-03T11:29:27.030Z,14.80
2018-12-03T11:32:02.012Z,14.90
2018-12-03T11:34:37.372Z,14.80
2018-12-03T11:37:16.285Z,14.80
2018-12-03T11:39:57.868Z,14.80
2018-12-03T11:42:36.202Z,14.80
2018-12-03T11:45:10.978Z,14.80
2018-12-03T11:47:45.607Z,14.70
2018-12-03T11:50:20.175Z,14.70
2018-12-03T11:52:55.416Z,14.70
2018-12-03T11:55:30.175Z,14.70
2018-12-03T11:58:05.064Z,14.70
2018-12-03T12:00:40.188Z,14.80
2018-12-03T12:03:17.330Z,14.80
2018-12-03T12:05:52.028Z,14.80
2018-12-03T12:08:26.678Z,14.80
2018-12-03T12:11:01.395Z,14.90
2018-12-03T12:13:37.061Z,14.90
2018-12-03T12:16:15.524Z,14.90
2018-12-03T12:18:50.403Z,15.00
2018-12-03T12:21:25.022Z,15.00
2018-12-03T12:24:00.187Z,15.00
2018-12-03T12:26:35.278Z,15.00
2018-12-03T12:29:10.335Z,15.00
2018-12-03T12:31:44.536Z,15.00
2018-12-03T12:34:19.584Z,15.10
2018-12-03T12:36:54.339Z,15.10
2018-12-03T12:39:29.087Z,15.10
2018-12-03T12:42:03.740Z,15.10
2018-12-03T12:44:38.189Z,15.10
2018-12-03T12:47:12.791Z,15.10
2018-12-03T12:49:47.571Z,15.10
2018-12-03T12:52:22.777Z,15.10
2018-12-03T12:54:57.240Z,15.10
2018-12-03T12:57:32.055Z,15.10
2018-12-03T13:00:15.284Z,15.10
2018-12-03T13:02:52.109Z,15.00
2018-12-03T13:05:28.769Z,15.00
2018-12-03T13:08:01.945Z,15.00
2018-12-03T13:10:36.888Z,15.00
2018-12-03T13:13:11.952Z,15.00
2018-12-03T13:15:46.632Z,14.90
2018-12-03T13:18:21.219Z,14.90
2018-12-03T13:20:56.247Z,14.90
2018-12-03T13:23:30.496Z,14.90
2018-12-03T13:26:06.727Z,14.90
2018-12-03T13:28:41.640Z,14.90
2018-12-03T13:31:16.524Z,14.80
2018-12-03T13:33:51.199Z,14.80
2018-12-03T13:36:25.853Z,14.80
2018-12-03T13:39:00.515Z,14.80
2018-12-03T13:41:35.465Z,14.70
2018-12-03T13:44:10.771Z,14.70
2018-12-03T13:46:45.395Z,14.70
2018-12-03T13:49:20.186Z,14.70
2018-12-03T13:51:55.115Z,14.60
2018-12-03T13:54:29.532Z,14.60
2018-12-03T13:57:04.616Z,14.60
2018-12-03T13:59:38.908Z,14.60
2018-12-03T14:02:13.860Z,14.60
2018-12-03T14:04:48.763Z,14.50
2018-12-03T14:07:34.281Z,14.50
2018-12-03T14:12:38.208Z,14.50
2018-12-03T14:15:28.217Z,14.50
2018-12-03T14:18:46.470Z,14.40
2018-12-03T14:21:31.079Z,14.40
2018-12-03T14:24:16.741Z,14.40
2018-12-03T14:26:51.561Z,14.40
2018-12-03T14:29:26.138Z,14.30
2018-12-03T14:32:00.739Z,14.30
2018-12-03T14:34:35.739Z,14.30
2018-12-03T14:37:10.676Z,14.30
2018-12-03T14:39:45.576Z,14.20
2018-12-03T14:42:20.459Z,14.20
2018-12-03T14:44:56.175Z,14.20
2018-12-03T14:47:30.356Z,14.10
2018-12-03T14:50:08.275Z,14.10
2018-12-03T14:52:42.596Z,14.10
2018-12-03T14:55:17.244Z,14.00
2018-12-03T14:57:52.244Z,14.00
2018-12-03T15:00:26.963Z,13.90
2018-12-03T15:03:01.643Z,13.90
2018-12-03T15:05:36.569Z,13.90
2018-12-03T15:08:11.455Z,13.90
2018-12-03T15:10:45.872Z,13.90
2018-12-03T15:13:20.392Z,13.80
2018-12-03T15:15:54.851Z,13.70
2018-12-03T15:18:29.770Z,13.70
2018-12-03T15:21:04.819Z,13.70
2018-12-03T15:23:44.477Z,13.70
2018-12-03T15:26:19.281Z,13.70
2018-12-03T15:28:54.089Z,13.70
2018-12-03T15:31:29.148Z,13.60
2018-12-03T15:34:03.904Z,13.60
2018-12-03T15:36:38.956Z,13.60
2018-12-03T15:39:13.812Z,13.60
2018-12-03T15:41:48.972Z,13.60
2018-12-03T15:44:23.124Z,13.60
2018-12-03T15:46:58.036Z,13.60
2018-12-03T15:49:33.156Z,13.60
2018-12-03T15:52:42.720Z,13.50
2018-12-03T15:55:17.116Z,13.50
2018-12-03T15:57:50.073Z,13.50
2018-12-03T16:00:23.348Z,13.50
2018-12-03T16:02:56.643Z,13.50
2018-12-03T16:05:29.790Z,13.50
2018-12-03T16:08:03.111Z,13.50
2018-12-03T16:10:36.749Z,13.50
2018-12-03T16:13:09.732Z,13.50
2018-12-03T16:15:42.099Z,13.50
2018-12-03T16:18:14.631Z,13.50
2018-12-03T16:20:47.956Z,13.50
2018-12-03T16:23:21.362Z,13.50
2018-12-03T16:25:53.823Z,13.50
2018-12-03T16:28:26.564Z,13.60
2018-12-03T16:31:00.047Z,13.60
2018-12-03T16:33:33.153Z,13.60
2018-12-03T16:36:06.324Z,13.60
2018-12-03T16:38:39.797Z,13.60
2018-12-03T16:41:16.215Z,13.60
2018-12-03T16:43:49.492Z,13.60
2018-12-03T16:46:22.717Z,13.50
2018-12-03T16:48:55.208Z,13.50
2018-12-03T16:51:28.453Z,13.50
2018-12-03T16:54:01.015Z,13.50
2018-12-03T16:56:33.383Z,13.50
2018-12-03T16:59:06.808Z,13.50
2018-12-03T17:01:39.145Z,13.40
2018-12-03T17:04:11.789Z,13.40
2018-12-03T17:06:45.808Z,13.40
2018-12-03T17:09:18.574Z,13.40
2018-12-03T17:11:51.834Z,13.40
2018-12-03T17:14:24.287Z,13.40
2018-12-03T17:16:58.512Z,13.40
2018-12-03T17:19:32.984Z,13.40
2018-12-03T17:22:06.804Z,13.40
2018-12-03T17:24:39.875Z,13.40
2018-12-03T17:27:13.436Z,13.40
2018-12-03T17:29:46.781Z,13.40
2018-12-03T17:32:20.296Z,13.40
2018-12-03T17:34:54.289Z,13.40
2018-12-03T17:37:33.784Z,13.40
2018-12-03T17:40:06.716Z,13.50
2018-12-03T17:42:39.883Z,13.50
2018-12-03T17:45:13.231Z,13.40
2018-12-03T17:47:46.964Z,13.40
2018-12-03T17:50:20.476Z,13.40
2018-12-03T17:52:53.623Z,13.40
2018-12-03T17:55:26.078Z,13.40
2018-12-03T17:57:59.325Z,13.40
2018-12-03T18:00:31.734Z,13.40
2018-12-03T18:03:05.235Z,13.40
2018-12-03T18:05:37.768Z,13.30
2018-12-03T18:08:10.923Z,13.30
2018-12-03T18:10:45.216Z,13.30
2018-12-03T18:13:18.400Z,13.30
2018-12-03T18:15:50.853Z,13.30
2018-12-03T18:18:24.199Z,13.20
2018-12-03T18:20:56.815Z,13.20
2018-12-03T18:23:29.948Z,13.20
2018-12-03T18:26:02.498Z,13.20
2018-12-03T18:28:35.937Z,13.20
2018-12-03T18:31:08.973Z,13.20
2018-12-03T18:33:42.407Z,13.20
2018-12-03T18:36:14.792Z,13.20
2018-12-03T18:38:48.241Z,13.20
2018-12-03T18:41:20.573Z,13.20
2018-12-03T18:43:53.048Z,13.20
2018-12-03T18:46:26.384Z,13.20
2018-12-03T18:49:00.191Z,13.20
2018-12-03T18:51:33.285Z,13.20
2018-12-03T18:54:06.506Z,13.20
2018-12-03T18:56:39.831Z,13.20
2018-12-03T18:59:12.998Z,13.20
2018-12-03T19:01:46.390Z,13.20
2018-12-03T19:04:19.688Z,13.20
2018-12-03T19:06:52.970Z,13.30
2018-12-03T19:09:26.312Z,13.30
2018-12-03T19:11:59.892Z,13.30
2018-12-03T19:14:33.362Z,13.30
2018-12-03T19:17:06.454Z,13.30
2018-12-03T19:19:38.904Z,13.30
2018-12-03T19:22:12.345Z,13.30
2018-12-03T19:24:46.342Z,13.30
2018-12-03T19:27:19.011Z,13.30
2018-12-03T19:29:59.306Z,13.20
2018-12-03T19:32:33.893Z,13.20
2018-12-03T19:35:07.723Z,13.20
2018-12-03T19:37:41.511Z,13.10
2018-12-03T19:40:15.751Z,13.10
2018-12-03T19:42:49.312Z,13.10
2018-12-03T19:45:22.514Z,13.10
2018-12-03T19:47:57.227Z,13.10
2018-12-03T19:50:31.187Z,13.10
2018-12-03T19:53:05.752Z,13.10
2018-12-03T19:55:41.015Z,13.10
2018-12-03T19:58:16.068Z,13.10
2018-12-03T20:00:50.021Z,13.20
2018-12-03T20:03:24.729Z,13.20
2018-12-03T20:05:58.913Z,13.20
2018-12-03T20:08:34.184Z,13.20
2018-12-03T20:11:09.741Z,13.30
2018-12-03T20:13:44.178Z,13.30
2018-12-03T20:16:18.505Z,13.40
2018-12-03T20:18:53.915Z,13.50
2018-12-03T20:21:28.350Z,13.50
2018-12-03T20:24:02.796Z,13.60
2018-12-03T20:26:37.078Z,13.70
2018-12-03T20:29:12.083Z,13.70
2018-12-03T20:31:55.065Z,13.70
2018-12-03T20:34:29.920Z,13.60
2018-12-03T20:37:10.316Z,13.50
2018-12-03T20:39:50.607Z,13.40
2018-12-03T20:42:24.698Z,13.20
2018-12-03T20:45:00.230Z,13.10
2018-12-03T20:47:34.454Z,12.90
2018-12-03T20:50:13.155Z,12.70
2018-12-03T20:52:47.959Z,12.60
2018-12-03T20:55:23.546Z,12.50
2018-12-03T20:57:57.759Z,12.40
2018-12-03T21:00:32.387Z,12.30
2018-12-03T21:03:07.275Z,12.20
2018-12-03T21:05:42.115Z,12.10
2018-12-03T21:08:16.158Z,12.10
2018-12-03T21:10:50.462Z,12.00
2018-12-03T21:13:24.662Z,11.90
2018-12-03T21:15:58.949Z,11.90
2018-12-03T21:18:32.786Z,11.80
2018-12-03T21:21:06.244Z,11.80
2018-12-03T21:23:39.512Z,11.80
2018-12-03T21:26:12.479Z,11.70
2018-12-03T21:28:45.736Z,11.70
2018-12-03T21:31:19.011Z,11.70
2018-12-03T21:33:52.236Z,11.70
2018-12-03T21:36:25.565Z,11.70
2018-12-03T21:38:58.949Z,11.70
2018-12-03T21:41:32.303Z,11.70
2018-12-03T21:44:04.804Z,11.70
2018-12-03T21:46:38.045Z,11.70
2018-12-03T21:49:10.409Z,11.70
2018-12-03T21:51:43.894Z,11.70
2018-12-03T21:54:17.057Z,11.70
2018-12-03T21:56:49.503Z,11.70
2018-12-03T21:59:23.705Z,11.70
2018-12-03T22:01:56.282Z,11.70
2018-12-03T22:04:29.599Z,11.60
2018-12-03T22:07:10.085Z,11.60
2018-12-03T22:09:43.604Z,11.60
2018-12-03T22:12:17.406Z,11.50
2018-12-03T22:14:50.283Z,11.50
2018-12-03T22:17:23.468Z,11.50
2018-12-03T22:19:56.775Z,11.40
2018-12-03T22:22:30.163Z,11.40
2018-12-03T22:25:02.961Z,11.30
2018-12-03T22:27:36.126Z,11.20
2018-12-03T22:30:09.584Z,11.20
2018-12-03T22:32:43.719Z,11.20
2018-12-03T22:35:17.042Z,11.10
2018-12-03T22:37:51.055Z,11.10
2018-12-03T22:40:23.734Z,11.10
2018-12-03T22:42:57.660Z,11.00
2018-12-03T22:45:31.243Z,11.00
2018-12-03T22:48:04.373Z,11.00
2018-12-03T22:50:38.173Z,11.10
2018-12-03T22:53:10.962Z,11.00
2018-12-03T22:55:44.143Z,11.10
2018-12-03T22:58:17.515Z,11.00
2018-12-03T23:00:56.062Z,11.00
2018-12-03T23:03:29.035Z,11.00
2018-12-03T23:06:02.543Z,11.10
2018-12-03T23:08:36.331Z,11.10
2018-12-03T23:11:09.226Z,11.10
2018-12-03T23:13:43.016Z,11.10
2018-12-03T23:16:16.904Z,11.10
2018-12-03T23:18:50.079Z,11.10
2018-12-03T23:21:23.206Z,11.20
2018-12-03T23:23:56.551Z,11.10
2018-12-03T23:26:30.142Z,11.20
2018-12-03T23:29:03.047Z,11.10
2018-12-03T23:31:36.118Z,11.10
2018-12-03T23:34:09.958Z,11.10
2018-12-03T23:36:43.733Z,11.10
2018-12-03T23:39:17.192Z,11.10
2018-12-03T23:41:50.555Z,11.00
2018-12-03T23:44:23.907Z,11.00
2018-12-03T23:46:57.077Z,11.00
2018-12-03T23:49:30.794Z,11.00
2018-12-03T23:52:04.137Z,11.00
2018-12-03T23:54:38.426Z,11.00
2018-12-03T23:57:11.730Z,11.00
2018-12-03T23:59:44.914Z,11.00
